createdAt,value
2022-08-05T00:06:54.831Z,5.87
2022-08-05T00:17:19.565Z,5.47
2022-08-05T00:27:43.335Z,10.85
2022-08-05T00:38:05.080Z,6.67
2022-08-05T00:48:32.726Z,5.82
2022-08-05T01:09:19.961Z,6.65
2022-08-05T01:20:00.829Z,6.50
2022-08-05T01:30:33.737Z,7.00
2022-08-05T01:40:59.831Z,8.88
2022-08-05T01:51:29.406Z,5.90
2022-08-05T02:01:55.507Z,6.43
2022-08-05T02:12:26.251Z,12.43
2022-08-05T02:22:51.476Z,7.35
2022-08-05T02:33:24.528Z,8.55
2022-08-05T02:44:02.605Z,7.70
2022-08-05T02:54:36.414Z,8.48
2022-08-05T03:05:00.032Z,10.48
2022-08-05T03:15:24.358Z,7.53
2022-08-05T03:26:04.339Z,9.48
2022-08-05T03:36:30.580Z,9.90
2022-08-05T03:46:52.488Z,13.65
2022-08-05T03:57:29.090Z,9.38
2022-08-05T04:08:14.931Z,9.00
2022-08-05T04:18:54.378Z,11.00
2022-08-05T04:29:15.986Z,7.80
2022-08-05T04:39:40.076Z,9.25
2022-08-05T05:00:35.011Z,9.23
2022-08-05T05:10:57.130Z,8.17
2022-08-05T05:21:20.331Z,9.02
2022-08-05T05:31:41.801Z,15.38
2022-08-05T05:42:09.773Z,7.68
2022-08-05T05:52:38.033Z,10.45
2022-08-05T06:03:39.720Z,15.25
2022-08-05T06:13:50.475Z,7.95
2022-08-05T06:24:17.476Z,9.15
2022-08-05T06:34:47.702Z,7.32
2022-08-05T06:45:21.277Z,5.90
2022-08-05T06:55:58.943Z,4.50
2022-08-05T07:06:22.803Z,6.00
2022-08-05T07:18:00.085Z,4.50
2022-08-05T07:27:56.346Z,4.88
2022-08-05T07:38:32.015Z,5.30
2022-08-05T07:49:05.363Z,5.38
2022-08-05T07:59:39.003Z,5.23
2022-08-05T08:10:05.683Z,6.85
2022-08-05T08:20:45.293Z,3.92
2022-08-05T08:31:14.580Z,6.88
2022-08-05T08:41:51.664Z,3.75
2022-08-05T08:52:26.122Z,6.25
2022-08-05T09:02:50.102Z,6.22
2022-08-05T09:13:15.173Z,6.00
2022-08-05T09:23:43.579Z,5.22
2022-08-05T09:34:09.716Z,5.65
2022-08-05T09:44:36.621Z,5.32
2022-08-05T09:55:21.150Z,2.95
2022-08-05T10:05:46.952Z,4.38
2022-08-05T10:16:32.076Z,6.67
2022-08-05T10:26:56.215Z,5.10
2022-08-05T10:37:26.727Z,5.80
2022-08-05T10:48:35.262Z,10.15
2022-08-05T10:59:07.350Z,4.38
2022-08-05T11:09:45.344Z,5.95
2022-08-05T11:20:30.278Z,7.22
2022-08-05T11:42:01.947Z,5.30
2022-08-05T11:52:29.352Z,6.18
2022-08-05T12:02:52.478Z,3.75
2022-08-05T12:13:49.111Z,3.67
2022-08-05T12:24:04.439Z,7.05
2022-08-05T12:34:29.215Z,4.97
2022-08-05T12:44:52.300Z,3.30
2022-08-05T12:55:22.602Z,6.05
2022-08-05T13:05:50.010Z,6.37
2022-08-05T13:16:15.514Z,3.08
2022-08-05T13:26:39.968Z,3.63
2022-08-05T13:37:02.828Z,2.80
2022-08-05T13:47:35.909Z,5.15
2022-08-05T13:58:08.066Z,3.42
2022-08-05T14:08:35.018Z,6.60
2022-08-05T14:18:57.242Z,3.92
2022-08-05T14:29:27.369Z,3.53
2022-08-05T14:39:56.784Z,5.40
2022-08-05T14:50:20.041Z,3.13
2022-08-05T15:00:58.245Z,4.60
2022-08-05T15:11:22.228Z,5.28
2022-08-05T15:22:04.002Z,6.80
2022-08-05T15:32:28.842Z,5.57
2022-08-05T15:42:56.752Z,8.10
2022-08-05T15:53:23.390Z,7.40
2022-08-05T16:03:50.536Z,7.15
2022-08-05T16:14:17.159Z,5.68
2022-08-05T16:24:51.829Z,9.50
2022-08-05T16:35:16.800Z,8.18
2022-08-05T16:46:05.422Z,6.18
2022-08-05T16:56:23.905Z,5.97
2022-08-05T17:06:45.455Z,12.27
2022-08-05T17:17:42.549Z,10.02
2022-08-05T17:28:05.722Z,8.13
2022-08-05T17:38:37.449Z,4.88
2022-08-05T17:49:02.102Z,5.13
2022-08-05T17:59:27.287Z,3.97
2022-08-05T18:09:59.476Z,1.45
2022-08-05T18:20:29.535Z,1.60
2022-08-05T18:30:53.466Z,1.73
2022-08-05T18:41:57.092Z,4.05
2022-08-05T18:52:15.504Z,1.95
2022-08-05T19:02:38.680Z,3.97
2022-08-05T19:13:00.932Z,3.95
2022-08-05T19:24:05.087Z,3.95
2022-08-05T19:34:06.994Z,3.55
2022-08-05T19:44:31.656Z,2.88
2022-08-05T19:54:53.066Z,3.93
2022-08-05T20:05:24.720Z,2.72
2022-08-05T20:15:52.114Z,2.70
2022-08-05T20:26:20.728Z,4.57
2022-08-05T20:36:45.253Z,2.38
2022-08-05T20:47:08.391Z,3.23
2022-08-05T20:57:43.963Z,2.00
2022-08-05T21:08:09.463Z,2.63
2022-08-05T21:18:32.214Z,3.00
2022-08-05T21:29:03.536Z,2.65
2022-08-05T21:39:26.640Z,6.13
2022-08-05T21:50:00.902Z,3.00
2022-08-05T22:00:23.626Z,3.72
2022-08-05T22:10:47.414Z,4.28
2022-08-05T22:21:19.315Z,3.80
2022-08-05T22:31:44.424Z,5.25
2022-08-05T22:42:12.103Z,3.30
2022-08-05T22:52:36.199Z,3.50
2022-08-05T23:02:58.545Z,3.38
2022-08-05T23:13:30.730Z,4.07
2022-08-05T23:23:56.883Z,8.07
2022-08-05T23:34:24.823Z,2.90
2022-08-05T23:44:46.792Z,1.75
2022-08-05T23:55:17.950Z,1.88
